Terminal Aerodrome Forecast
Issued by NWS

Home | Current Version | Previous Version | Text Only | Print | Product List | Glossary On
Versions: 1 2 3 4 5 6 7 8 9 10 11 12 13 14 15 16
000
FTUS44 KEPZ 292300
TAFTCS
TAF
KTCS 292328Z 3000/3024 10007KT P6SM SKC
     FM300500 30006KT P6SM SKC
     FM301700 17007KT P6SM FEW100 FEW250=

USA.gov is the U.S. government's official web portal to all federal, state and local government web resources and services.